ASA67 PASI-PAJN
Flight info
| Callsign | ASA67 |
|---|---|
| Flight time | 0h 20m |
| Altitude | 13000 |
| Route | HAWRD5 TNAKY |
| Aircraft | B737/M-SDE2E3FGHIRWXY/LB1 |
Departure
| Time | 2026-04-19 04:23 |
|---|---|
| Airport | Sitka Rocky Gutierrez Airport (PASI) |
Arrival
| Time | 2026-04-19 04:43 |
|---|---|
| Airport | Juneau International Airport (PAJN) |
| Time | Latitude | Longitude | Altitude | Speed | Heading |
|---|---|---|---|---|---|
| 2026-04-19 04:07 | 57.05235 | -135.36606 | 34 ft | 0 kts | 76° |
| 2026-04-19 04:16 | 57.05235 | -135.36608 | 34 ft | 2 kts | 76° |
| 2026-04-19 04:17 | 57.05228 | -135.36651 | 34 ft | 4 kts | 73° |
| 2026-04-19 04:17 | 57.05219 | -135.36698 | 34 ft | 4 kts | 67° |
| 2026-04-19 04:17 | 57.05211 | -135.36730 | 34 ft | 0 kts | 63° |
| 2026-04-19 04:20 | 57.05212 | -135.36730 | 34 ft | 0 kts | 63° |
| 2026-04-19 04:20 | 57.05221 | -135.36726 | 34 ft | 2 kts | 344° |
| 2026-04-19 04:20 | 57.05233 | -135.36764 | 32 ft | 6 kts | 299° |
| 2026-04-19 04:20 | 57.05265 | -135.36867 | 34 ft | 10 kts | 304° |
| 2026-04-19 04:21 | 57.05312 | -135.36964 | 32 ft | 10 kts | 315° |
| 2026-04-19 04:21 | 57.05360 | -135.37053 | 34 ft | 10 kts | 315° |
| 2026-04-19 04:21 | 57.05402 | -135.37146 | 33 ft | 9 kts | 284° |
| 2026-04-19 04:21 | 57.05370 | -135.37239 | 34 ft | 9 kts | 228° |
| 2026-04-19 04:22 | 57.05325 | -135.37266 | 33 ft | 7 kts | 149° |
| 2026-04-19 04:22 | 57.05292 | -135.37206 | 35 ft | 7 kts | 135° |
| 2026-04-19 04:22 | 57.05091 | -135.36845 | 34 ft | 82 kts | 135° |
| 2026-04-19 04:22 | 57.04499 | -135.35768 | 51 ft | 152 kts | 134° |
| 2026-04-19 04:23 | 57.03726 | -135.34324 | 822 ft | 154 kts | 136° |
| 2026-04-19 04:23 | 57.02762 | -135.33527 | 1678 ft | 159 kts | 178° |
| 2026-04-19 04:23 | 57.01692 | -135.34131 | 2430 ft | 169 kts | 214° |
| 2026-04-19 04:23 | 57.00878 | -135.35684 | 3352 ft | 175 kts | 240° |
| 2026-04-19 04:24 | 57.00567 | -135.38071 | 3672 ft | 216 kts | 272° |
| 2026-04-19 04:24 | 57.01202 | -135.40721 | 3978 ft | 246 kts | 315° |
| 2026-04-19 04:24 | 57.02677 | -135.42468 | 4446 ft | 266 kts | 333° |
| 2026-04-19 04:24 | 57.04359 | -135.44020 | 5126 ft | 280 kts | 333° |
| 2026-04-19 04:25 | 57.06103 | -135.45645 | 6266 ft | 282 kts | 332° |
| 2026-04-19 04:25 | 57.07845 | -135.47338 | 7313 ft | 284 kts | 329° |
| 2026-04-19 04:25 | 57.09580 | -135.49079 | 8430 ft | 285 kts | 328° |
| 2026-04-19 04:25 | 57.11334 | -135.50866 | 9487 ft | 289 kts | 327° |
| 2026-04-19 04:26 | 57.13105 | -135.52679 | 10427 ft | 295 kts | 328° |
| 2026-04-19 04:26 | 57.15135 | -135.53971 | 10763 ft | 329 kts | 350° |
| 2026-04-19 04:26 | 57.17486 | -135.53549 | 11301 ft | 351 kts | 14° |
| 2026-04-19 04:26 | 57.19829 | -135.52109 | 12129 ft | 358 kts | 17° |
| 2026-04-19 04:27 | 57.22208 | -135.50688 | 12729 ft | 359 kts | 15° |
| 2026-04-19 04:27 | 57.24614 | -135.49334 | 12996 ft | 366 kts | 14° |
| 2026-04-19 04:27 | 57.27073 | -135.48030 | 13004 ft | 368 kts | 14° |
| 2026-04-19 04:27 | 57.29546 | -135.46746 | 13004 ft | 368 kts | 14° |
| 2026-04-19 04:28 | 57.32010 | -135.45476 | 13002 ft | 368 kts | 13° |
| 2026-04-19 04:28 | 57.34475 | -135.44194 | 13002 ft | 367 kts | 13° |
| 2026-04-19 04:28 | 57.36929 | -135.42882 | 13020 ft | 367 kts | 14° |
| 2026-04-19 04:28 | 57.39388 | -135.41558 | 13021 ft | 368 kts | 14° |
| 2026-04-19 04:29 | 57.41822 | -135.40272 | 13005 ft | 368 kts | 13° |
| 2026-04-19 04:29 | 57.44280 | -135.38976 | 13019 ft | 368 kts | 14° |
| 2026-04-19 04:29 | 57.46743 | -135.37672 | 13020 ft | 367 kts | 14° |
| 2026-04-19 04:29 | 57.49200 | -135.36367 | 13024 ft | 368 kts | 14° |
| 2026-04-19 04:30 | 57.51670 | -135.35061 | 13016 ft | 368 kts | 13° |
| 2026-04-19 04:30 | 57.54138 | -135.33759 | 13024 ft | 368 kts | 14° |
| 2026-04-19 04:30 | 57.56599 | -135.32437 | 13017 ft | 368 kts | 14° |
| 2026-04-19 04:30 | 57.59057 | -135.31101 | 13082 ft | 368 kts | 15° |
| 2026-04-19 04:31 | 57.61502 | -135.29587 | 12982 ft | 370 kts | 15° |
| 2026-04-19 04:31 | 57.63971 | -135.28289 | 13007 ft | 367 kts | 13° |
| 2026-04-19 04:31 | 57.66435 | -135.27051 | 13023 ft | 365 kts | 13° |
| 2026-04-19 04:31 | 57.68883 | -135.25787 | 13014 ft | 366 kts | 13° |
| 2026-04-19 04:32 | 57.71307 | -135.24485 | 12935 ft | 358 kts | 14° |
| 2026-04-19 04:32 | 57.73707 | -135.23197 | 12540 ft | 357 kts | 14° |
| 2026-04-19 04:32 | 57.76066 | -135.21939 | 12067 ft | 354 kts | 14° |
| 2026-04-19 04:32 | 57.78422 | -135.20675 | 11574 ft | 350 kts | 14° |
| 2026-04-19 04:33 | 57.80754 | -135.19421 | 11077 ft | 347 kts | 14° |
| 2026-04-19 04:33 | 57.83070 | -135.18171 | 10532 ft | 345 kts | 15° |
| 2026-04-19 04:33 | 57.85340 | -135.16929 | 10319 ft | 332 kts | 15° |
| 2026-04-19 04:33 | 57.87513 | -135.15746 | 10167 ft | 320 kts | 15° |
| 2026-04-19 04:34 | 57.89612 | -135.14606 | 10011 ft | 308 kts | 15° |
| 2026-04-19 04:34 | 57.91625 | -135.13508 | 9981 ft | 293 kts | 15° |
| 2026-04-19 04:34 | 57.93602 | -135.12429 | 9339 ft | 302 kts | 15° |
| 2026-04-19 04:34 | 57.95616 | -135.11330 | 8895 ft | 302 kts | 15° |
| 2026-04-19 04:35 | 57.97625 | -135.10231 | 8506 ft | 300 kts | 15° |
| 2026-04-19 04:35 | 57.99625 | -135.09133 | 8088 ft | 299 kts | 16° |
| 2026-04-19 04:35 | 58.01613 | -135.08037 | 7741 ft | 295 kts | 15° |
| 2026-04-19 04:35 | 58.03589 | -135.06960 | 7363 ft | 294 kts | 15° |
| 2026-04-19 04:36 | 58.05541 | -135.05892 | 7020 ft | 291 kts | 16° |
| 2026-04-19 04:36 | 58.07454 | -135.04846 | 6866 ft | 281 kts | 15° |
| 2026-04-19 04:36 | 58.09308 | -135.03833 | 6716 ft | 274 kts | 15° |
| 2026-04-19 04:36 | 58.11129 | -135.02839 | 6572 ft | 272 kts | 15° |
| 2026-04-19 04:37 | 58.12925 | -135.01859 | 6424 ft | 272 kts | 15° |
| 2026-04-19 04:37 | 58.14742 | -135.00866 | 6285 ft | 272 kts | 16° |
| 2026-04-19 04:37 | 58.16561 | -134.99870 | 6137 ft | 272 kts | 16° |
| 2026-04-19 04:37 | 58.18373 | -134.98876 | 6044 ft | 271 kts | 16° |
| 2026-04-19 04:38 | 58.20204 | -134.97855 | 5683 ft | 278 kts | 17° |
| 2026-04-19 04:38 | 58.22053 | -134.96817 | 5363 ft | 275 kts | 17° |
| 2026-04-19 04:38 | 58.23882 | -134.95788 | 5033 ft | 273 kts | 17° |
| 2026-04-19 04:38 | 58.25690 | -134.94770 | 4716 ft | 270 kts | 17° |
| 2026-04-19 04:39 | 58.27484 | -134.93760 | 4423 ft | 266 kts | 17° |
| 2026-04-19 04:39 | 58.29252 | -134.92763 | 4144 ft | 262 kts | 17° |
| 2026-04-19 04:39 | 58.30964 | -134.91798 | 3913 ft | 258 kts | 17° |
| 2026-04-19 04:39 | 58.32685 | -134.90827 | 3707 ft | 257 kts | 17° |
| 2026-04-19 04:40 | 58.34348 | -134.89704 | 3519 ft | 252 kts | 32° |
| 2026-04-19 04:40 | 58.35547 | -134.87386 | 3314 ft | 247 kts | 63° |
| 2026-04-19 04:40 | 58.36041 | -134.84275 | 2983 ft | 247 kts | 86° |
| 2026-04-19 04:40 | 58.36088 | -134.81008 | 2606 ft | 245 kts | 91° |
| 2026-04-19 04:41 | 58.36043 | -134.77831 | 2239 ft | 235 kts | 92° |
| 2026-04-19 04:41 | 58.35994 | -134.74802 | 1884 ft | 223 kts | 92° |
| 2026-04-19 04:41 | 58.35960 | -134.71991 | 1533 ft | 200 kts | 91° |
| 2026-04-19 04:41 | 58.35935 | -134.69489 | 1251 ft | 178 kts | 91° |
| 2026-04-19 04:42 | 58.35916 | -134.67272 | 1050 ft | 155 kts | 92° |
| 2026-04-19 04:42 | 58.35923 | -134.65342 | 755 ft | 141 kts | 92° |
| 2026-04-19 04:42 | 58.35911 | -134.63568 | 550 ft | 129 kts | 90° |
| 2026-04-19 04:42 | 58.35918 | -134.61890 | 347 ft | 125 kts | 89° |
| 2026-04-19 04:43 | 58.35852 | -134.60266 | 118 ft | 121 kts | 102° |
| 2026-04-19 04:43 | 58.35657 | -134.58781 | 34 ft | 107 kts | 104° |
| 2026-04-19 04:43 | 58.35496 | -134.57634 | 35 ft | 72 kts | 104° |
| 2026-04-19 04:43 | 58.35398 | -134.56937 | 34 ft | 27 kts | 106° |
| 2026-04-19 04:44 | 58.35410 | -134.56681 | 31 ft | 19 kts | 21° |
| 2026-04-19 04:44 | 58.35494 | -134.56814 | 33 ft | 18 kts | 282° |
| 2026-04-19 04:44 | 58.35524 | -134.57042 | 33 ft | 18 kts | 285° |
| 2026-04-19 04:44 | 58.35556 | -134.57262 | 33 ft | 17 kts | 285° |
| 2026-04-19 04:45 | 58.35586 | -134.57474 | 33 ft | 16 kts | 284° |
| 2026-04-19 04:45 | 58.35613 | -134.57679 | 33 ft | 16 kts | 284° |
| 2026-04-19 04:45 | 58.35639 | -134.57875 | 33 ft | 15 kts | 285° |
| 2026-04-19 04:45 | 58.35667 | -134.58063 | 33 ft | 14 kts | 285° |
| 2026-04-19 04:46 | 58.35693 | -134.58242 | 32 ft | 14 kts | 285° |
| 2026-04-19 04:46 | 58.35719 | -134.58414 | 31 ft | 13 kts | 285° |
| 2026-04-19 04:46 | 58.35747 | -134.58575 | 33 ft | 13 kts | 308° |
| 2026-04-19 04:46 | 58.35798 | -134.58537 | 33 ft | 9 kts | 58° |
| 2026-04-19 04:47 | 58.35835 | -134.58456 | 33 ft | 6 kts | 50° |
| 2026-04-19 04:47 | 58.35842 | -134.58439 | 31 ft | 1 kts | 49° |
| 2026-04-19 04:47 | 58.35846 | -134.58431 | 33 ft | 1 kts | 49° |
| 2026-04-19 04:47 | 58.35847 | -134.58428 | 33 ft | 0 kts | 49° |